FLCH weather

Choma Airport
Choma, Southern Province, Zambia

Public forecast

Using degrees Celsius for public forecast. Weather courtesy of forecast.io.

METAR (pilot weather report)

Report is more than 6 hours old.

Retrieved 2010/07/23 06:00 UTC (9 years ago):

FLCH 230600Z 00903KT CAVOK 12/09

TAF (pilot weather forecast)

Forecast is more than 6 hours old.

Closest forecast is Harry Mwanga Nkumbula International Airport, 91.9 nm (170.2 km) SW. Retrieved 2019/08/17 18:00 UTC (12 hours ago):

TAF FLHN 171600Z 1718/1824 07005KT CAVOK BECMG 1806/1808 09010KT FM181600 07005KT